Time;durP1;ratioP1;P1;durP2;ratioP2;P2;SDS_P1;SDS_P2;PMS_P1;PMS_P2;Temp;Humidity;BMP_temperature;BMP_pressure;BME280_temperature;BME280_humidity;BME280_pressure;Samples;Min_cycle;Max_cycle;Signal;HPM_P1;HPM_P2
2021/05/28 00:01:47;;;;;;;7.60;3.28;;;11.70;99.90;;;;;;5034747;28;20200;-78
2021/05/28 00:04:14;;;;;;;6.30;3.17;;;11.70;99.90;;;;;;5036886;28;20220;-79
2021/05/28 00:06:41;;;;;;;6.32;3.08;;;11.80;99.90;;;;;;5023961;28;20197;-79
2021/05/28 00:09:08;;;;;;;8.48;3.70;;;11.80;99.90;;;;;;5030187;28;20257;-78
2021/05/28 00:11:35;;;;;;;7.35;4.15;;;11.60;99.90;;;;;;5017783;28;20549;-78
2021/05/28 00:14:01;;;;;;;8.27;4.32;;;11.60;99.90;;;;;;5017827;28;20206;-78
2021/05/28 00:16:28;;;;;;;5.80;3.35;;;11.60;99.90;;;;;;5017025;28;20591;-77
2021/05/28 00:18:55;;;;;;;5.60;3.80;;;11.70;99.90;;;;;;5016473;28;20273;-78
2021/05/28 00:21:22;;;;;;;10.18;4.13;;;11.70;99.90;;;;;;5020155;28;20275;-78
2021/05/28 00:23:49;;;;;;;6.13;3.45;;;11.60;99.90;;;;;;5035638;28;20223;-77
2021/05/28 00:26:17;;;;;;;7.93;4.25;;;11.60;99.90;;;;;;5035763;28;20223;-78
2021/05/28 00:28:48;;;;;;;9.02;3.65;;;11.80;99.90;;;;;;5036558;28;20619;-78
2021/05/28 00:31:15;;;;;;;7.15;3.85;;;11.70;99.90;;;;;;5037631;28;20204;-77
2021/05/28 00:33:42;;;;;;;5.55;4.03;;;11.60;99.90;;;;;;5037293;28;20210;-78
2021/05/28 00:36:09;;;;;;;7.22;3.13;;;11.50;99.90;;;;;;5038861;28;20223;-77
2021/05/28 00:38:36;;;;;;;9.05;3.58;;;11.30;99.90;;;;;;5040463;28;20701;-80
2021/05/28 00:41:03;;;;;;;8.23;3.83;;;11.50;99.90;;;;;;5039494;28;20271;-80
2021/05/28 00:43:30;;;;;;;6.57;3.85;;;11.50;99.90;;;;;;5039308;28;20669;-80
2021/05/28 00:45:57;;;;;;;8.02;4.07;;;11.30;99.90;;;;;;5044098;28;20219;-79
2021/05/28 00:48:24;;;;;;;6.93;3.70;;;11.30;99.90;;;;;;5047876;28;20203;-78
2021/05/28 00:50:51;;;;;;;9.43;4.13;;;11.40;99.90;;;;;;5047493;28;20308;-79
2021/05/28 00:53:17;;;;;;;9.38;4.43;;;11.40;99.90;;;;;;5031217;28;20296;-78
2021/05/28 00:55:45;;;;;;;9.10;3.90;;;11.30;99.90;;;;;;5047402;28;20247;-78
2021/05/28 00:58:11;;;;;;;10.52;4.68;;;11.30;99.90;;;;;;5041341;28;20728;-80
2021/05/28 01:00:40;;;;;;;4.15;3.75;;;11.20;99.90;;;;;;5037829;28;20195;-79
2021/05/28 01:03:08;;;;;;;10.13;4.78;;;11.20;99.90;;;;;;5020153;28;20295;-80
2021/05/28 01:05:35;;;;;;;13.68;4.68;;;11.30;99.90;;;;;;5037790;28;20235;-79
2021/05/28 01:08:04;;;;;;;8.25;3.78;;;11.40;99.90;;;;;;5037111;28;20736;-79
2021/05/28 01:10:32;;;;;;;8.88;4.45;;;11.30;99.90;;;;;;5037241;28;20283;-79
2021/05/28 01:13:05;;;;;;;7.25;4.25;;;11.20;99.90;;;;;;5031383;28;20203;-79
2021/05/28 01:15:33;;;;;;;9.88;4.88;;;11.30;99.90;;;;;;5037421;23;20228;-77
2021/05/28 01:18:07;;;;;;;9.07;4.78;;;11.30;99.90;;;;;;5012361;28;20245;-77
2021/05/28 01:20:34;;;;;;;13.55;4.75;;;11.30;99.90;;;;;;5010866;28;20192;-79
2021/05/28 01:23:03;;;;;;;9.45;4.32;;;11.20;99.90;;;;;;5012509;28;20275;-77
2021/05/28 01:25:31;;;;;;;14.73;6.30;;;11.10;99.90;;;;;;5011122;28;20314;-78
2021/05/28 01:27:57;;;;;;;11.43;5.22;;;11.20;99.90;;;;;;5011970;28;20214;-78
2021/05/28 01:30:26;;;;;;;15.27;5.93;;;11.30;99.90;;;;;;5010789;28;20679;-78
2021/05/28 01:32:53;;;;;;;14.05;5.82;;;11.30;99.90;;;;;;4994777;28;20243;-77
2021/05/28 01:35:20;;;;;;;9.93;5.30;;;11.40;99.90;;;;;;5028984;28;20242;-79
2021/05/28 01:37:47;;;;;;;16.98;5.53;;;11.30;99.90;;;;;;5027727;28;20262;-79
2021/05/28 01:40:16;;;;;;;8.48;5.13;;;11.30;99.90;;;;;;5011015;28;20570;-79
2021/05/28 01:42:42;;;;;;;16.75;6.30;;;11.30;99.90;;;;;;5013059;28;20355;-77
2021/05/28 01:45:10;;;;;;;6.65;5.10;;;11.30;99.90;;;;;;5011034;28;20315;-78
2021/05/28 01:47:37;;;;;;;10.57;5.53;;;11.40;99.90;;;;;;5027949;28;20203;-77
2021/05/28 01:50:06;;;;;;;13.93;7.15;;;11.30;99.90;;;;;;5032324;28;20574;-77
2021/05/28 01:52:33;;;;;;;8.07;5.93;;;11.40;99.90;;;;;;5032346;28;20206;-80
2021/05/28 01:55:00;;;;;;;13.75;6.38;;;11.40;99.90;;;;;;5033890;28;20215;-78
2021/05/28 01:57:27;;;;;;;11.20;6.18;;;11.30;99.90;;;;;;5035888;28;20265;-77
2021/05/28 01:59:54;;;;;;;16.75;6.53;;;11.30;99.90;;;;;;5032766;28;20203;-77
2021/05/28 02:02:21;;;;;;;15.45;6.55;;;11.20;99.90;;;;;;5035842;28;20200;-77
2021/05/28 02:04:47;;;;;;;9.05;5.50;;;11.10;99.90;;;;;;5034954;28;20306;-77
2021/05/28 02:07:14;;;;;;;12.05;6.07;;;11.00;99.90;;;;;;5020850;28;20208;-77
2021/05/28 02:09:45;;;;;;;14.18;5.72;;;11.00;99.90;;;;;;4998376;28;20238;-78
2021/05/28 02:12:12;;;;;;;11.65;6.25;;;11.00;99.90;;;;;;5015453;28;20670;-76
2021/05/28 02:14:39;;;;;;;8.50;5.85;;;10.90;99.90;;;;;;5014770;28;20196;-77
2021/05/28 02:17:06;;;;;;;15.32;7.10;;;10.90;99.90;;;;;;5016001;28;20199;-78
2021/05/28 02:19:33;;;;;;;11.90;5.95;;;10.90;99.90;;;;;;4998735;28;20211;-77
2021/05/28 02:22:00;;;;;;;12.35;6.25;;;10.90;99.90;;;;;;5025492;28;20187;-82
2021/05/28 02:24:26;;;;;;;7.97;5.40;;;10.90;99.90;;;;;;5060077;28;20328;-82
2021/05/28 02:26:56;;;;;;;15.23;6.13;;;10.70;99.90;;;;;;5060162;28;20415;-81
2021/05/28 02:29:24;;;;;;;11.82;6.47;;;10.60;99.90;;;;;;5054317;28;20199;-79
2021/05/28 02:31:52;;;;;;;15.55;6.55;;;10.70;99.90;;;;;;5039648;28;20202;-80
2021/05/28 02:34:19;;;;;;;17.30;6.80;;;10.60;99.90;;;;;;5019569;28;20229;-77
2021/05/28 02:36:45;;;;;;;9.40;5.75;;;10.60;99.90;;;;;;5015597;28;20224;-77
2021/05/28 02:39:12;;;;;;;14.25;6.15;;;10.60;99.90;;;;;;5015821;28;20201;-80
2021/05/28 02:41:39;;;;;;;13.57;6.60;;;10.60;99.90;;;;;;4998150;28;20247;-77
2021/05/28 02:44:06;;;;;;;17.42;6.50;;;10.50;99.90;;;;;;5015037;28;20224;-78
2021/05/28 02:46:34;;;;;;;13.48;5.88;;;10.50;99.90;;;;;;5014905;28;20266;-78
2021/05/28 02:49:03;;;;;;;8.35;5.60;;;10.50;99.90;;;;;;5013861;28;20683;-77
2021/05/28 02:51:30;;;;;;;10.77;6.05;;;10.50;99.90;;;;;;5014977;28;20331;-77
2021/05/28 02:53:56;;;;;;;12.57;5.80;;;10.50;99.90;;;;;;5014483;28;20700;-78
2021/05/28 02:56:23;;;;;;;13.27;6.57;;;10.50;99.90;;;;;;5011829;28;20222;-78
2021/05/28 02:58:50;;;;;;;14.15;5.70;;;10.40;99.90;;;;;;5014089;28;20201;-78
2021/05/28 03:01:17;;;;;;;16.40;6.45;;;10.30;99.90;;;;;;5014626;28;20671;-77
2021/05/28 03:03:44;;;;;;;8.82;6.13;;;10.30;99.90;;;;;;5013324;28;20204;-77
2021/05/28 03:06:11;;;;;;;11.98;5.32;;;10.30;99.90;;;;;;5013578;28;20243;-78
2021/05/28 03:08:38;;;;;;;15.75;6.45;;;10.20;99.90;;;;;;5013121;28;20201;-78
2021/05/28 03:11:05;;;;;;;11.80;6.07;;;10.20;99.90;;;;;;5014878;28;20197;-78
2021/05/28 03:13:31;;;;;;;13.38;7.32;;;10.10;99.90;;;;;;5013165;28;20278;-78
2021/05/28 03:15:58;;;;;;;13.23;7.10;;;10.00;99.90;;;;;;5014787;28;20580;-77
2021/05/28 03:18:34;;;;;;;11.30;6.72;;;10.00;99.90;;;;;;5014175;28;20197;-75
2021/05/28 03:21:19;;;;;;;10.50;6.53;;;10.00;99.90;;;;;;5026182;28;20199;-78
2021/05/28 03:23:48;;;;;;;9.50;6.32;;;10.00;99.90;;;;;;5035506;28;20274;-77
2021/05/28 03:26:14;;;;;;;11.40;6.47;;;9.90;99.90;;;;;;5034048;28;20244;-78
2021/05/28 03:28:41;;;;;;;10.25;5.80;;;9.90;99.90;;;;;;5032713;28;20254;-77
2021/05/28 03:31:07;;;;;;;10.10;6.43;;;9.90;99.90;;;;;;5032992;28;20319;-79
2021/05/28 03:33:34;;;;;;;10.68;6.82;;;9.90;99.90;;;;;;5035194;28;20207;-77
2021/05/28 03:36:01;;;;;;;10.15;5.28;;;10.00;99.90;;;;;;5032492;28;20243;-74
2021/05/28 03:38:28;;;;;;;8.73;5.70;;;10.00;99.90;;;;;;5033769;28;20237;-77
2021/05/28 03:40:56;;;;;;;15.77;6.82;;;10.00;99.90;;;;;;5032475;28;20589;-78
2021/05/28 03:43:23;;;;;;;12.02;6.40;;;9.80;99.90;;;;;;5033702;28;20644;-77
2021/05/28 03:45:50;;;;;;;11.10;6.15;;;9.70;99.90;;;;;;5033606;28;20256;-80
2021/05/28 03:48:16;;;;;;;8.48;6.35;;;9.80;99.90;;;;;;5033381;28;20193;-78
2021/05/28 03:50:42;;;;;;;14.18;5.18;;;9.70;99.90;;;;;;5033189;28;20605;-78
2021/05/28 03:53:09;;;;;;;14.75;5.55;;;9.70;99.90;;;;;;5035477;28;20209;-78
2021/05/28 03:55:36;;;;;;;13.88;6.43;;;9.60;99.90;;;;;;5034631;28;20209;-78
2021/05/28 03:58:04;;;;;;;11.32;6.57;;;9.60;99.90;;;;;;5032012;28;20261;-78
2021/05/28 04:00:30;;;;;;;12.18;6.13;;;9.70;99.90;;;;;;5033748;28;20291;-78
2021/05/28 04:02:58;;;;;;;10.85;7.13;;;9.80;99.90;;;;;;5032445;28;20681;-79
2021/05/28 04:05:25;;;;;;;11.75;5.25;;;9.80;99.90;;;;;;5033035;28;20228;-76
2021/05/28 04:07:51;;;;;;;10.43;5.78;;;9.90;99.90;;;;;;5032323;28;20200;-78
2021/05/28 04:10:18;;;;;;;8.38;6.18;;;9.80;99.90;;;;;;5031776;28;20202;-78
2021/05/28 04:12:45;;;;;;;9.27;5.80;;;9.80;99.90;;;;;;5021617;28;20229;-78
2021/05/28 04:15:13;;;;;;;12.30;7.03;;;9.70;99.90;;;;;;5011825;28;20712;-78
2021/05/28 04:17:40;;;;;;;12.77;6.53;;;9.90;99.90;;;;;;5011197;28;20572;-78
2021/05/28 04:20:08;;;;;;;13.75;7.03;;;9.80;99.90;;;;;;5012705;28;20205;-78
2021/05/28 04:22:35;;;;;;;14.18;5.88;;;9.90;99.90;;;;;;5013237;28;20234;-78
2021/05/28 04:25:02;;;;;;;11.05;5.28;;;10.00;99.90;;;;;;5011716;28;20229;-80
2021/05/28 04:27:29;;;;;;;7.65;5.55;;;9.90;99.90;;;;;;5013781;28;20253;-78
2021/05/28 04:29:56;;;;;;;11.93;8.25;;;10.00;99.90;;;;;;5011802;28;20197;-78
2021/05/28 04:32:23;;;;;;;13.40;7.20;;;10.00;99.90;;;;;;5013000;28;20197;-78
2021/05/28 04:34:50;;;;;;;7.38;5.82;;;10.00;99.90;;;;;;5013110;28;20193;-78
2021/05/28 04:37:17;;;;;;;13.20;7.65;;;10.00;99.90;;;;;;5010947;28;20272;-78
2021/05/28 04:39:44;;;;;;;10.88;6.28;;;10.00;99.90;;;;;;5012596;28;20242;-77
2021/05/28 04:42:12;;;;;;;9.43;6.38;;;9.90;99.90;;;;;;5012883;28;20257;-78
2021/05/28 04:44:39;;;;;;;8.30;6.10;;;9.90;99.90;;;;;;5011451;28;20218;-77
2021/05/28 04:47:05;;;;;;;14.48;6.63;;;9.80;99.90;;;;;;5011547;28;20193;-79
2021/05/28 04:49:33;;;;;;;15.88;6.90;;;10.00;99.90;;;;;;5013192;28;20235;-79
2021/05/28 04:52:01;;;;;;;6.63;4.80;;;10.00;99.90;;;;;;5013050;28;20678;-78
2021/05/28 04:54:27;;;;;;;9.45;6.35;;;10.00;99.90;;;;;;5022076;28;20192;-79
2021/05/28 04:56:54;;;;;;;9.63;6.50;;;10.10;99.90;;;;;;5024321;28;20230;-78
2021/05/28 04:59:21;;;;;;;12.93;6.07;;;10.20;99.90;;;;;;5016098;28;20549;-79
2021/05/28 05:01:48;;;;;;;11.15;8.77;;;10.20;99.90;;;;;;5016140;28;20204;-78
2021/05/28 05:04:14;;;;;;;9.27;5.90;;;10.40;99.90;;;;;;5014549;28;20247;-77
2021/05/28 05:06:42;;;;;;;8.85;6.60;;;10.40;99.90;;;;;;5013439;28;20310;-78
2021/05/28 05:09:08;;;;;;;14.65;7.65;;;10.50;99.90;;;;;;5013025;28;20196;-78
2021/05/28 05:11:35;;;;;;;11.70;6.22;;;10.50;99.90;;;;;;5020836;28;20218;-80
2021/05/28 05:14:02;;;;;;;9.50;6.60;;;10.60;99.90;;;;;;5034808;28;20192;-79
2021/05/28 05:16:28;;;;;;;13.63;7.85;;;10.80;99.90;;;;;;5032478;28;20227;-78
2021/05/28 05:18:55;;;;;;;13.68;6.50;;;10.80;99.90;;;;;;5028918;28;20286;-82
2021/05/28 05:21:22;;;;;;;16.23;8.60;;;10.60;99.90;;;;;;5034391;28;20670;-79
2021/05/28 05:23:50;;;;;;;11.65;8.32;;;10.60;99.90;;;;;;5038187;28;20229;-79
2021/05/28 05:26:17;;;;;;;13.52;10.52;;;10.70;99.90;;;;;;5033848;28;20285;-78
2021/05/28 05:28:43;;;;;;;11.30;10.25;;;10.70;99.90;;;;;;5032739;28;20666;-78
2021/05/28 05:31:10;;;;;;;15.15;10.95;;;10.80;99.90;;;;;;5037318;28;20212;-79
2021/05/28 05:33:38;;;;;;;18.58;10.85;;;10.80;99.90;;;;;;5036338;28;20196;-79
2021/05/28 05:36:05;;;;;;;27.80;17.75;;;10.90;99.90;;;;;;5033606;28;20215;-78
2021/05/28 05:38:32;;;;;;;24.92;19.65;;;10.80;99.90;;;;;;5017503;28;20204;-75
2021/05/28 05:40:59;;;;;;;19.58;12.75;;;10.80;99.90;;;;;;5024680;28;20192;-78
2021/05/28 05:43:26;;;;;;;16.67;13.13;;;10.70;99.90;;;;;;5034434;28;20199;-79
2021/05/28 05:45:52;;;;;;;14.50;12.35;;;10.80;99.90;;;;;;5037081;28;20314;-79
2021/05/28 05:48:19;;;;;;;21.23;15.65;;;10.70;99.90;;;;;;5031826;28;20221;-79
2021/05/28 05:50:46;;;;;;;16.45;13.25;;;10.80;99.90;;;;;;5032036;28;20214;-78
2021/05/28 05:53:13;;;;;;;11.95;10.48;;;10.90;99.90;;;;;;5020813;28;20218;-78
2021/05/28 05:55:39;;;;;;;18.67;11.45;;;10.90;99.90;;;;;;5019751;28;20248;-79
2021/05/28 05:58:07;;;;;;;13.80;11.15;;;10.80;99.90;;;;;;5020755;28;20677;-78
2021/05/28 06:00:33;;;;;;;18.33;12.57;;;10.90;99.90;;;;;;5027062;28;20207;-76
2021/05/28 06:03:00;;;;;;;14.50;11.15;;;10.70;99.90;;;;;;5017666;28;20671;-78
2021/05/28 06:05:27;;;;;;;15.05;12.60;;;10.70;99.90;;;;;;5017119;28;20229;-80
2021/05/28 06:07:53;;;;;;;17.55;12.13;;;10.80;99.90;;;;;;5032589;28;20218;-77
2021/05/28 06:10:20;;;;;;;18.45;10.90;;;10.80;99.90;;;;;;5033581;28;20673;-81
2021/05/28 06:12:47;;;;;;;14.25;12.00;;;10.80;99.90;;;;;;5036006;28;20210;-79
2021/05/28 06:15:14;;;;;;;15.50;11.25;;;10.90;99.90;;;;;;5013695;28;20256;-79
2021/05/28 06:17:41;;;;;;;17.58;12.00;;;10.80;99.90;;;;;;5018546;28;20190;-78
2021/05/28 06:20:08;;;;;;;16.77;11.02;;;10.80;99.90;;;;;;5019953;28;20203;-78
2021/05/28 06:22:35;;;;;;;14.75;12.18;;;11.10;99.90;;;;;;5030846;28;20200;-78
2021/05/28 06:25:01;;;;;;;18.83;11.27;;;11.40;99.90;;;;;;5015970;28;20611;-79
2021/05/28 06:27:28;;;;;;;14.40;11.90;;;11.50;99.90;;;;;;5030316;28;20202;-78
2021/05/28 06:29:55;;;;;;;17.13;11.80;;;11.80;99.90;;;;;;5026271;28;20301;-78
2021/05/28 06:32:22;;;;;;;15.60;12.23;;;12.00;99.90;;;;;;5035930;28;20195;-77
2021/05/28 06:34:49;;;;;;;13.93;11.15;;;11.80;99.90;;;;;;5033855;28;20666;-77
2021/05/28 06:37:16;;;;;;;14.25;10.75;;;11.60;99.90;;;;;;5022104;28;20584;-74
2021/05/28 06:39:42;;;;;;;12.45;10.60;;;11.40;99.90;;;;;;5017358;28;20203;-75
2021/05/28 06:42:10;;;;;;;19.98;12.13;;;11.40;99.90;;;;;;5026168;28;20284;-76
2021/05/28 06:44:36;;;;;;;15.63;11.48;;;11.60;99.90;;;;;;5014832;28;20213;-77
2021/05/28 06:47:03;;;;;;;12.20;10.05;;;11.70;99.90;;;;;;5015631;28;20215;-79
2021/05/28 06:49:31;;;;;;;16.55;11.73;;;11.50;99.90;;;;;;5015262;28;20247;-77
2021/05/28 06:51:57;;;;;;;10.25;9.30;;;11.50;99.90;;;;;;5013557;28;20208;-77
2021/05/28 06:54:24;;;;;;;10.13;9.05;;;11.50;99.90;;;;;;5016051;28;20636;-76
2021/05/28 06:56:51;;;;;;;17.23;11.70;;;11.70;99.90;;;;;;5033089;28;20278;-76
2021/05/28 06:59:18;;;;;;;11.60;10.43;;;11.90;99.90;;;;;;5034713;28;20200;-78
2021/05/28 07:01:44;;;;;;;12.20;10.20;;;12.10;99.90;;;;;;5031596;28;20306;-77
2021/05/28 07:04:11;;;;;;;10.63;9.07;;;12.10;99.90;;;;;;5034355;28;20559;-77
2021/05/28 07:06:38;;;;;;;11.85;10.73;;;12.00;99.90;;;;;;5016120;28;20832;-78
2021/05/28 07:09:06;;;;;;;13.30;10.60;;;11.90;99.90;;;;;;5016033;28;20198;-79
2021/05/28 07:11:33;;;;;;;10.27;8.70;;;11.90;99.90;;;;;;5022723;28;20200;-80
2021/05/28 07:14:00;;;;;;;16.88;10.35;;;12.00;99.90;;;;;;5021260;28;20219;-80
2021/05/28 07:16:28;;;;;;;11.67;10.47;;;11.90;99.90;;;;;;5019967;23;20467;-79
2021/05/28 07:18:55;;;;;;;15.45;11.57;;;12.10;99.90;;;;;;4992801;28;20201;-78
2021/05/28 07:21:23;;;;;;;12.75;10.85;;;12.10;99.90;;;;;;5007537;28;20265;-78
2021/05/28 07:23:50;;;;;;;11.90;10.23;;;12.20;99.90;;;;;;5011792;28;20205;-79
2021/05/28 07:26:17;;;;;;;13.45;10.07;;;12.40;99.90;;;;;;5011582;28;20225;-77
2021/05/28 07:28:44;;;;;;;13.32;9.60;;;12.50;99.90;;;;;;4989417;28;20262;-78
2021/05/28 07:31:11;;;;;;;14.70;9.73;;;12.50;99.90;;;;;;4996253;28;20202;-79
2021/05/28 07:33:38;;;;;;;10.13;8.98;;;12.50;99.90;;;;;;5006919;28;20236;-78
2021/05/28 07:36:07;;;;;;;14.65;9.82;;;12.50;99.90;;;;;;5005380;28;20228;-78
2021/05/28 07:38:34;;;;;;;11.35;9.25;;;12.70;99.90;;;;;;5005360;28;20240;-76
2021/05/28 07:41:01;;;;;;;12.68;9.50;;;12.60;99.90;;;;;;5006919;28;20232;-78
2021/05/28 07:43:28;;;;;;;13.82;10.88;;;12.90;99.90;;;;;;5006655;28;20200;-77
2021/05/28 07:45:58;;;;;;;15.38;10.85;;;13.10;99.90;;;;;;5001066;28;20258;-78
2021/05/28 07:48:25;;;;;;;12.90;9.48;;;13.40;99.90;;;;;;4982146;28;20208;-78
2021/05/28 07:50:58;;;;;;;14.20;11.45;;;13.70;99.90;;;;;;5002093;28;20367;-78
2021/05/28 07:53:27;;;;;;;12.25;10.07;;;13.70;99.90;;;;;;4999048;28;20723;-79
2021/05/28 07:55:55;;;;;;;10.93;9.52;;;13.60;99.90;;;;;;4991372;28;20248;-79
2021/05/28 07:58:23;;;;;;;11.25;9.20;;;13.60;99.90;;;;;;5005243;28;20220;-78
2021/05/28 08:00:50;;;;;;;11.15;8.70;;;13.40;99.90;;;;;;5002145;28;20196;-77
2021/05/28 08:03:17;;;;;;;11.88;9.77;;;13.50;99.90;;;;;;4998218;28;20238;-77
2021/05/28 08:05:48;;;;;;;11.90;9.27;;;13.90;99.90;;;;;;4982404;28;20253;-79
2021/05/28 08:08:15;;;;;;;10.63;9.43;;;13.90;99.90;;;;;;4964325;28;20213;-77
2021/05/28 08:10:42;;;;;;;12.43;9.18;;;13.80;99.90;;;;;;4977381;28;20183;-77
2021/05/28 08:13:09;;;;;;;12.40;10.55;;;14.00;99.90;;;;;;4979734;28;20193;-78
2021/05/28 08:15:36;;;;;;;12.65;10.80;;;14.00;99.90;;;;;;4979278;28;20225;-79
2021/05/28 08:18:05;;;;;;;14.32;10.80;;;14.00;99.90;;;;;;4996069;28;20196;-79
2021/05/28 08:20:32;;;;;;;11.57;9.63;;;14.20;99.90;;;;;;4980882;28;20547;-80
2021/05/28 08:22:59;;;;;;;12.55;9.63;;;14.10;99.90;;;;;;4998906;28;20708;-79
2021/05/28 08:25:27;;;;;;;18.90;10.73;;;14.20;99.90;;;;;;5000854;28;20312;-78
2021/05/28 08:27:53;;;;;;;11.15;10.05;;;14.00;99.90;;;;;;4998433;28;20212;-80
2021/05/28 08:30:21;;;;;;;12.95;9.32;;;14.00;99.90;;;;;;4996807;28;20201;-79
2021/05/28 08:32:49;;;;;;;10.35;8.68;;;14.00;99.90;;;;;;4981463;28;20225;-79
2021/05/28 08:35:16;;;;;;;12.23;10.32;;;14.00;99.90;;;;;;4995095;28;20208;-79
2021/05/28 08:37:43;;;;;;;11.70;9.15;;;13.80;99.90;;;;;;4997268;28;20205;-80
2021/05/28 08:40:11;;;;;;;12.95;10.80;;;14.20;99.90;;;;;;4997177;28;20232;-80
2021/05/28 08:42:38;;;;;;;11.02;8.77;;;14.40;99.90;;;;;;5000355;28;20197;-81
2021/05/28 08:45:06;;;;;;;10.48;7.70;;;14.60;99.90;;;;;;4990244;28;20301;-82
2021/05/28 08:47:35;;;;;;;10.70;9.15;;;14.60;99.90;;;;;;5000420;28;20259;-81
2021/05/28 08:50:02;;;;;;;11.93;9.00;;;14.70;99.90;;;;;;5000487;28;20210;-80
2021/05/28 08:52:29;;;;;;;11.18;10.07;;;14.80;99.90;;;;;;4990417;28;20377;-81
2021/05/28 08:54:55;;;;;;;9.65;8.55;;;14.90;99.90;;;;;;5002313;28;20256;-81
2021/05/28 08:57:23;;;;;;;10.57;7.68;;;15.00;99.90;;;;;;5001893;28;20217;-81
2021/05/28 08:59:50;;;;;;;10.73;9.27;;;15.30;99.90;;;;;;5003873;28;20201;-80
2021/05/28 09:02:30;;;;;;;10.77;9.45;;;15.40;99.90;;;;;;5000835;28;20209;-82
2021/05/28 09:05:13;;;;;;;10.38;7.75;;;15.60;99.90;;;;;;4985904;28;20233;-81
2021/05/28 09:07:53;;;;;;;8.00;6.47;;;15.20;99.90;;;;;;4988961;28;20213;-80
2021/05/28 09:10:32;;;;;;;9.10;8.20;;;14.90;99.90;;;;;;4991990;28;20205;-82
2021/05/28 09:13:08;;;;;;;11.98;8.52;;;14.80;99.90;;;;;;5007815;28;20196;-82
2021/05/28 09:15:35;;;;;;;10.02;7.18;;;14.80;99.90;;;;;;4997057;28;20260;-80
2021/05/28 09:18:01;;;;;;;9.57;8.65;;;15.00;99.90;;;;;;4992886;28;20225;-81
2021/05/28 09:20:29;;;;;;;8.15;7.35;;;15.20;99.90;;;;;;4981617;28;20307;-82
2021/05/28 09:23:13;;;;;;;9.70;7.80;;;15.40;99.90;;;;;;5005724;28;20185;-80
2021/05/28 09:26:02;;;;;;;10.88;8.18;;;15.50;99.90;;;;;;5012292;28;20256;-80
2021/05/28 09:28:35;;;;;;;9.15;8.27;;;15.70;99.90;;;;;;5008372;28;20259;-85
2021/05/28 09:31:10;;;;;;;12.45;8.70;;;16.00;99.90;;;;;;4989750;28;20221;-80
2021/05/28 09:33:38;;;;;;;9.65;7.82;;;16.10;99.90;;;;;;5002772;28;20288;-79
2021/05/28 09:36:17;;;;;;;9.77;8.82;;;16.30;99.90;;;;;;4986943;28;20277;-80
2021/05/28 09:38:59;;;;;;;10.63;8.05;;;16.50;99.90;;;;;;4999180;28;20205;-81
2021/05/28 09:41:45;;;;;;;9.90;8.98;;;16.50;99.90;;;;;;5003728;28;20466;-81
2021/05/28 09:44:15;;;;;;;11.30;10.18;;;16.40;99.90;;;;;;4993698;28;20201;-81
2021/05/28 09:47:01;;;;;;;9.00;8.23;;;16.40;99.90;;;;;;5011077;28;20265;-81
2021/05/28 09:49:30;;;;;;;13.65;8.75;;;16.50;99.90;;;;;;4992921;28;20181;-80
2021/05/28 09:52:21;;;;;;;11.07;9.98;;;16.70;99.90;;;;;;5015601;28;20205;-81
2021/05/28 09:54:57;;;;;;;10.55;9.60;;;16.70;99.90;;;;;;4997133;28;20193;-80
2021/05/28 09:57:41;;;;;;;14.30;11.10;;;16.80;99.90;;;;;;5009768;28;20236;-81
2021/05/28 10:00:09;;;;;;;10.73;9.70;;;16.80;99.90;;;;;;4992292;28;20225;-82
2021/05/28 10:02:42;;;;;;;11.70;10.00;;;16.60;99.90;;;;;;4997527;28;20206;-80
2021/05/28 10:05:09;;;;;;;10.30;9.30;;;16.40;99.90;;;;;;4991146;28;20281;-81
2021/05/28 10:07:37;;;;;;;9.57;8.85;;;16.40;99.90;;;;;;4970821;28;20206;-80
2021/05/28 10:10:05;;;;;;;11.48;9.80;;;16.60;99.90;;;;;;4987941;28;20208;-81
2021/05/28 10:12:32;;;;;;;11.70;10.45;;;16.60;99.90;;;;;;4997267;28;20194;-82
2021/05/28 10:14:59;;;;;;;11.40;10.35;;;16.80;99.90;;;;;;4999980;28;20194;-81
2021/05/28 10:17:26;;;;;;;12.68;11.35;;;16.70;99.90;;;;;;5005262;28;20214;-81
2021/05/28 10:19:52;;;;;;;10.80;9.75;;;16.90;99.90;;;;;;4992202;28;20217;-81
2021/05/28 10:22:22;;;;;;;11.23;10.07;;;16.90;99.90;;;;;;4995380;28;20228;-80
2021/05/28 10:24:52;;;;;;;12.60;11.30;;;16.90;99.90;;;;;;4998620;28;20217;-80
2021/05/28 10:27:23;;;;;;;12.48;10.50;;;16.60;99.90;;;;;;4992735;28;20233;-81
2021/05/28 10:29:51;;;;;;;13.68;12.25;;;16.70;99.90;;;;;;4992542;28;20210;-81
2021/05/28 10:32:19;;;;;;;13.13;11.75;;;16.70;99.90;;;;;;4997605;28;20205;-81
2021/05/28 10:35:10;;;;;;;13.15;11.88;;;16.70;99.90;;;;;;5013830;28;20193;-80
2021/05/28 10:37:38;;;;;;;13.95;12.77;;;16.80;99.90;;;;;;4985921;28;20226;-80
2021/05/28 10:40:24;;;;;;;12.50;11.32;;;16.90;99.90;;;;;;5003626;28;20205;-79
2021/05/28 10:43:03;;;;;;;15.32;13.85;;;17.00;99.90;;;;;;4976939;29;20187;-82
2021/05/28 10:45:56;;;;;;;13.48;12.20;;;17.00;99.90;;;;;;4970168;28;20226;-77
2021/05/28 10:49:06;;;;;;;16.00;13.95;;;17.00;99.90;;;;;;4991677;28;20230;-79
2021/05/28 10:51:58;;;;;;;15.95;14.40;;;16.70;99.90;;;;;;4982564;28;20217;-80
2021/05/28 10:54:28;;;;;;;14.90;12.75;;;16.80;99.90;;;;;;5003831;28;20192;-81
2021/05/28 10:56:55;;;;;;;15.52;13.93;;;16.80;99.90;;;;;;4994123;28;20214;-80
2021/05/28 10:59:23;;;;;;;14.98;13.52;;;17.20;99.90;;;;;;4993799;28;20197;-81
2021/05/28 11:01:53;;;;;;;17.00;13.55;;;17.20;99.90;;;;;;4997698;28;20201;-81
2021/05/28 11:04:23;;;;;;;14.02;12.07;;;17.00;99.90;;;;;;5001696;28;20217;-80
2021/05/28 11:07:15;;;;;;;14.35;13.05;;;16.90;99.90;;;;;;4996737;28;20697;-82
2021/05/28 11:09:43;;;;;;;14.90;13.63;;;16.90;99.90;;;;;;5012402;28;20202;-80
2021/05/28 11:12:12;;;;;;;14.05;12.82;;;16.80;99.90;;;;;;4987029;28;20249;-80
2021/05/28 11:14:56;;;;;;;13.77;12.55;;;16.80;99.90;;;;;;5003365;28;20202;-79
2021/05/28 11:17:23;;;;;;;15.07;13.10;;;17.00;99.90;;;;;;5007638;28;20247;-80
2021/05/28 11:20:00;;;;;;;18.13;12.77;;;17.40;99.90;;;;;;5009360;28;20361;-79
2021/05/28 11:22:38;;;;;;;13.95;12.35;;;17.50;99.90;;;;;;5003019;28;20268;-79
2021/05/28 11:25:15;;;;;;;12.65;11.32;;;17.60;99.90;;;;;;4988877;28;20213;-79
2021/05/28 11:27:58;;;;;;;13.18;11.52;;;17.80;99.90;;;;;;5005086;28;20232;-77
2021/05/28 11:30:29;;;;;;;13.00;11.70;;;17.70;99.90;;;;;;4994234;28;20202;-79
2021/05/28 11:32:56;;;;;;;10.10;9.20;;;17.90;99.90;;;;;;4969543;28;20353;-79
2021/05/28 11:35:24;;;;;;;12.43;10.35;;;17.50;99.90;;;;;;4987594;28;20242;-80
2021/05/28 11:37:54;;;;;;;10.70;9.70;;;17.30;99.90;;;;;;4993398;28;20217;-79
2021/05/28 11:40:24;;;;;;;10.63;9.60;;;17.20;99.90;;;;;;4996949;28;20202;-79
2021/05/28 11:42:53;;;;;;;9.27;8.43;;;16.90;99.90;;;;;;4986577;28;20218;-81
2021/05/28 11:45:21;;;;;;;10.23;8.63;;;16.70;99.90;;;;;;4983206;28;20260;-79
2021/05/28 11:47:53;;;;;;;8.55;7.75;;;16.90;99.90;;;;;;4995619;28;20198;-79
2021/05/28 11:50:20;;;;;;;9.00;8.10;;;17.40;99.90;;;;;;4993445;28;20274;-80
2021/05/28 11:52:57;;;;;;;9.02;7.40;;;17.80;99.90;;;;;;5008535;28;20197;-79
2021/05/28 11:55:25;;;;;;;8.48;7.68;;;17.90;99.90;;;;;;5010570;28;20396;-79
2021/05/28 11:58:00;;;;;;;8.07;7.28;;;17.90;99.90;;;;;;4996321;28;20202;-80
2021/05/28 12:00:27;;;;;;;11.60;7.35;;;17.80;99.90;;;;;;5010478;28;20276;-80
2021/05/28 12:02:56;;;;;;;7.55;6.68;;;17.90;99.90;;;;;;4990742;28;20210;-81
2021/05/28 12:05:35;;;;;;;7.80;6.93;;;18.50;99.90;;;;;;4990347;28;20245;-80
2021/05/28 12:08:16;;;;;;;7.18;6.57;;;18.60;99.90;;;;;;4997530;28;20200;-81
2021/05/28 12:10:44;;;;;;;8.88;7.40;;;18.90;99.90;;;;;;4982907;28;20216;-81
2021/05/28 12:13:14;;;;;;;7.72;7.00;;;18.70;99.90;;;;;;4990005;28;20214;-81
2021/05/28 12:15:43;;;;;;;7.35;5.75;;;18.60;99.90;;;;;;4988872;28;20237;-78
2021/05/28 12:18:17;;;;;;;7.00;6.30;;;18.60;99.90;;;;;;4992269;28;20193;-80
2021/05/28 12:20:45;;;;;;;7.70;6.90;;;18.60;99.90;;;;;;4988527;28;20205;-81
2021/05/28 12:23:14;;;;;;;6.47;5.43;;;18.30;99.90;;;;;;5003133;28;20204;-80
2021/05/28 12:25:48;;;;;;;7.03;6.13;;;17.90;99.90;;;;;;5004627;28;20225;-79
2021/05/28 12:28:22;;;;;;;7.75;6.30;;;18.10;99.90;;;;;;4984213;28;20287;-82
2021/05/28 12:30:51;;;;;;;6.53;6.03;;;18.30;99.90;;;;;;4981382;28;20290;-81
2021/05/28 12:33:20;;;;;;;8.90;5.50;;;18.40;99.90;;;;;;4981763;28;20670;-80
2021/05/28 12:35:54;;;;;;;6.00;5.40;;;18.70;99.90;;;;;;4979632;28;20225;-81
2021/05/28 12:38:25;;;;;;;7.35;5.55;;;19.30;99.90;;;;;;4988896;28;20206;-81
2021/05/28 12:40:52;;;;;;;5.93;4.90;;;20.00;99.90;;;;;;4983409;28;20201;-81
2021/05/28 12:43:26;;;;;;;5.50;4.57;;;20.10;99.90;;;;;;4983761;28;20304;-81
2021/05/28 12:46:00;;;;;;;7.03;4.57;;;19.80;99.90;;;;;;4989848;28;20237;-82
2021/05/28 12:48:50;;;;;;;6.18;4.38;;;19.50;99.90;;;;;;4991906;28;20205;-81